Time;durP1;ratioP1;P1;durP2;ratioP2;P2;SDS_P1;SDS_P2;PMS_P1;PMS_P2;Temp;Humidity;BMP_temperature;BMP_pressure;BME280_temperature;BME280_humidity;BME280_pressure;Samples;Min_cycle;Max_cycle;Signal;HPM_P1;HPM_P2
2022/10/25 00:01:18;;;;;;;15.63;7.43;;;;;;;0.70;63.31;100203.97;6029998;23;20133;-80
2022/10/25 00:03:44;;;;;;;18.58;7.63;;;;;;;0.60;63.95;100191.63;6073952;23;20019;-79
2022/10/25 00:06:11;;;;;;;18.05;6.95;;;;;;;0.67;64.21;100187.63;6048631;23;20105;-79
2022/10/25 00:08:38;;;;;;;16.20;7.00;;;;;;;0.70;64.19;100180.03;6073326;23;20049;-80
2022/10/25 00:11:06;;;;;;;25.70;8.07;;;;;;;0.79;64.58;100185.50;6048652;23;20026;-80
2022/10/25 00:13:33;;;;;;;20.85;7.72;;;;;;;0.73;64.09;100185.28;6089339;23;20022;-79
2022/10/25 00:15:59;;;;;;;19.05;7.82;;;;;;;0.79;64.60;100195.75;6123033;23;20042;-81
2022/10/25 00:18:25;;;;;;;17.10;7.78;;;;;;;0.52;63.99;100149.47;6073617;23;20010;-80
2022/10/25 00:20:50;;;;;;;21.92;7.15;;;;;;;0.88;64.59;100208.06;6085837;23;20018;-78
2022/10/25 00:23:17;;;;;;;20.60;8.02;;;;;;;0.57;63.87;100156.50;6048643;23;20021;-80
2022/10/25 00:25:43;;;;;;;22.73;8.27;;;;;;;0.80;64.66;100196.63;6049258;23;20041;-80
2022/10/25 00:28:10;;;;;;;20.60;7.65;;;;;;;0.79;63.95;100217.94;6025637;23;20018;-80
2022/10/25 00:30:36;;;;;;;27.77;7.95;;;;;;;0.77;64.27;100211.88;6049662;23;20023;-80
2022/10/25 00:33:01;;;;;;;28.40;7.85;;;;;;;0.74;64.83;100215.22;6095575;23;20037;-78
2022/10/25 00:35:27;;;;;;;17.90;7.53;;;;;;;0.72;64.43;100206.59;6071706;23;20050;-81
2022/10/25 00:37:53;;;;;;;20.92;8.48;;;;;;;0.57;64.49;100187.25;6071803;23;20157;-78
2022/10/25 00:40:19;;;;;;;17.92;7.53;;;;;;;0.70;64.59;100211.66;6024312;23;20022;-79
2022/10/25 00:42:45;;;;;;;19.55;7.15;;;;;;;0.51;64.91;100175.91;6071749;23;20010;-79
2022/10/25 00:45:25;;;;;;;24.73;8.18;;;;;;;0.70;64.91;100203.09;6071270;23;20069;-79
2022/10/25 00:48:00;;;;;;;21.00;7.47;;;;;;;0.64;64.84;100220.78;6096879;23;20018;-79
2022/10/25 00:50:43;;;;;;;27.70;7.75;;;;;;;0.67;65.10;100216.66;6095503;23;20024;-79
2022/10/25 00:53:12;;;;;;;;;;;;;;;0.67;64.54;100229.47;6097461;23;20106;-80
2022/10/25 00:55:44;;;;;;;26.55;7.85;;;;;;;0.45;65.29;100202.16;6095022;23;19913;-79
2022/10/25 00:58:23;;;;;;;23.15;7.78;;;;;;;0.33;65.15;100181.22;6024088;23;20018;-79
2022/10/25 01:00:49;;;;;;;23.85;7.50;;;;;;;0.50;65.01;100221.16;6048921;23;20022;-80
2022/10/25 01:03:19;;;;;;;20.05;7.57;;;;;;;0.61;65.38;100239.50;6072552;23;20026;-79
2022/10/25 01:05:46;;;;;;;27.38;9.13;;;;;;;0.36;64.58;100212.03;6071148;23;20104;-78
2022/10/25 01:08:13;;;;;;;18.25;7.85;;;;;;;0.49;65.58;100232.22;6072473;23;20584;-80
2022/10/25 01:10:40;;;;;;;18.52;8.10;;;;;;;0.57;65.42;100243.59;6050239;23;20461;-78
2022/10/25 01:13:06;;;;;;;19.42;7.97;;;;;;;0.45;65.75;100220.09;6081029;23;20413;-78
2022/10/25 01:15:48;;;;;;;23.20;8.02;;;;;;;0.32;65.06;100192.28;6099339;23;20051;-79
2022/10/25 01:18:22;;;;;;;26.60;8.40;;;;;;;0.47;65.44;100235.50;6096185;23;20081;-80
2022/10/25 01:21:18;;;;;;;27.75;8.15;;;;;;;0.33;65.58;100207.69;6096621;23;20098;-79
2022/10/25 01:23:50;;;;;;;25.08;8.93;;;;;;;0.62;66.17;100240.34;6071309;23;20018;-81
2022/10/25 01:26:34;;;;;;;27.00;8.05;;;;;;;0.57;65.23;100248.72;6096177;23;20018;-79
2022/10/25 01:29:32;;;;;;;21.70;8.82;;;;;;;0.58;66.21;100245.34;6032743;23;20018;-80
2022/10/25 01:32:25;;;;;;;24.92;8.55;;;;;;;0.54;65.97;100240.94;6057918;23;20014;-80
2022/10/25 01:35:10;;;;;;;23.73;8.50;;;;;;;0.61;65.72;100252.31;6065169;23;20028;-81
2022/10/25 01:37:48;;;;;;;16.67;8.10;;;;;;;0.60;66.36;100242.88;6071016;23;20024;-80
2022/10/25 01:40:30;;;;;;;21.75;8.30;;;;;;;0.65;66.28;100251.63;6070486;23;20066;-80
2022/10/25 01:43:15;;;;;;;28.30;8.77;;;;;;;0.65;65.97;100255.84;6070633;23;20015;-80
2022/10/25 01:46:05;;;;;;;27.30;8.48;;;;;;;0.44;65.82;100231.16;6095960;23;20150;-79
2022/10/25 01:48:35;;;;;;;21.35;8.50;;;;;;;0.43;65.04;100252.44;6046378;23;20062;-79
2022/10/25 01:51:11;;;;;;;24.13;8.60;;;;;;;0.45;65.52;100261.06;6070176;23;20019;-80
2022/10/25 01:53:52;;;;;;;29.80;8.75;;;;;;;0.25;65.56;100235.53;6094322;23;20174;-79
2022/10/25 01:56:45;;;;;;;27.33;10.40;;;;;;;0.39;65.62;100260.81;6070463;23;20464;-78
2022/10/25 01:59:30;;;;;;;23.55;7.78;;;;;;;0.39;65.48;100263.38;6044776;23;20026;-81
2022/10/25 02:02:38;;;;;;;25.15;9.05;;;;;;;0.43;66.23;100265.25;6046222;23;20018;-81
2022/10/25 02:05:38;;;;;;;23.13;8.57;;;;;;;0.21;66.19;100246.47;6038233;23;20092;-79
2022/10/25 02:08:14;;;;;;;18.17;7.78;;;;;;;0.26;65.45;100270.56;6070598;23;20045;-78
2022/10/25 02:10:49;;;;;;;23.08;8.98;;;;;;;0.12;66.13;100243.53;6070281;23;20026;-80
2022/10/25 02:13:26;;;;;;;23.50;9.35;;;;;;;0.20;66.10;100260.09;6046103;23;20045;-81
2022/10/25 02:16:18;;;;;;;24.77;8.55;;;;;;;0.10;65.76;100250.28;6054400;23;20018;-83
2022/10/25 02:18:48;;;;;;;28.73;9.80;;;;;;;0.14;65.45;100258.16;6070250;23;20014;-80
2022/10/25 02:21:16;;;;;;;27.15;8.93;;;;;;;0.02;65.62;100247.41;6069848;23;20021;-80
2022/10/25 02:23:44;;;;;;;22.77;9.27;;;;;;;0.19;66.27;100276.25;6096198;23;20029;-80
2022/10/25 02:26:11;;;;;;;17.40;8.73;;;;;;;0.06;65.63;100267.19;6096850;23;20022;-81
2022/10/25 02:28:40;;;;;;;23.55;9.00;;;;;;;0.16;66.29;100281.25;6070218;23;20018;-80
2022/10/25 02:31:08;;;;;;;22.02;8.68;;;;;;;0.03;66.03;100267.06;6023116;23;20014;-80
2022/10/25 02:33:35;;;;;;;19.27;8.70;;;;;;;0.12;65.41;100285.38;6075430;23;20018;-80
2022/10/25 02:36:19;;;;;;;25.25;8.75;;;;;;;0.14;65.62;100280.31;6109970;23;20019;-80
2022/10/25 02:38:47;;;;;;;32.13;10.35;;;;;;;0.00;65.82;100269.53;6081863;23;20019;-79
2022/10/25 02:41:12;;;;;;;26.63;9.40;;;;;;;-0.03;65.48;100269.38;6108650;23;20042;-79
2022/10/25 02:43:38;;;;;;;22.15;8.68;;;;;;;0.05;66.11;100282.50;6075622;23;20065;-79
2022/10/25 02:46:10;;;;;;;23.35;9.32;;;;;;;0.01;65.81;100275.50;6070204;23;20025;-80
2022/10/25 02:48:36;;;;;;;20.38;8.63;;;;;;;-0.10;65.91;100265.69;6022864;23;20061;-80
2022/10/25 02:51:04;;;;;;;17.45;8.52;;;;;;;-0.07;65.89;100270.06;6070084;23;20440;-78
2022/10/25 02:53:31;;;;;;;20.23;8.55;;;;;;;-0.07;66.13;100267.50;6069986;23;20022;-80
2022/10/25 02:56:00;;;;;;;29.08;11.35;;;;;;;-0.03;65.64;100290.72;6070310;23;20093;-81
2022/10/25 02:58:28;;;;;;;18.13;8.77;;;;;;;-0.05;65.95;100292.34;6071516;23;20018;-81
2022/10/25 03:00:55;;;;;;;21.65;8.32;;;;;;;-0.12;66.17;100279.22;6051712;23;20465;-82
2022/10/25 03:03:20;;;;;;;19.98;9.13;;;;;;;-0.40;66.00;100247.34;6050066;23;20011;-79
2022/10/25 03:05:47;;;;;;;22.38;9.27;;;;;;;-0.23;66.09;100271.09;6098951;23;20069;-81
2022/10/25 03:08:12;;;;;;;18.63;8.85;;;;;;;-0.17;66.25;100286.72;6096654;23;20045;-80
2022/10/25 03:10:38;;;;;;;22.77;9.70;;;;;;;-0.17;66.02;100291.84;6043834;23;20453;-79
2022/10/25 03:13:04;;;;;;;21.15;9.38;;;;;;;-0.18;65.99;100282.41;6041036;23;20023;-78
2022/10/25 03:15:30;;;;;;;23.70;9.13;;;;;;;-0.24;66.55;100279.59;6041395;23;20409;-80
2022/10/25 03:17:56;;;;;;;21.45;8.77;;;;;;;-0.23;66.83;100281.34;6066491;23;20074;-80
2022/10/25 03:20:22;;;;;;;18.15;9.20;;;;;;;-0.48;66.74;100245.38;6041658;23;20023;-79
2022/10/25 03:22:48;;;;;;;21.08;9.00;;;;;;;-0.26;66.74;100283.75;6041755;23;20074;-80
2022/10/25 03:25:14;;;;;;;31.02;9.43;;;;;;;-0.48;65.84;100259.81;6040934;23;20310;-80
2022/10/25 03:27:43;;;;;;;23.25;9.43;;;;;;;-0.59;66.57;100233.78;6067254;23;20026;-80
2022/10/25 03:30:12;;;;;;;23.88;9.93;;;;;;;-0.57;66.43;100244.97;6066792;23;20023;-79
2022/10/25 03:32:38;;;;;;;17.95;9.10;;;;;;;-0.40;66.45;100272.94;6040917;23;20433;-80
2022/10/25 03:35:05;;;;;;;27.38;8.98;;;;;;;-0.36;66.82;100277.38;6041214;23;20023;-78
2022/10/25 03:37:31;;;;;;;26.33;8.38;;;;;;;-0.39;66.21;100279.78;6064806;23;20037;-81
2022/10/25 03:39:57;;;;;;;27.92;8.73;;;;;;;-0.61;66.35;100249.06;6067051;23;20526;-78
2022/10/25 03:42:23;;;;;;;18.67;8.95;;;;;;;-0.37;66.64;100286.75;6019774;23;20019;-79
2022/10/25 03:44:49;;;;;;;17.55;7.88;;;;;;;-0.54;66.06;100275.78;6043612;23;20098;-78
2022/10/25 03:47:21;;;;;;;21.48;7.95;;;;;;;-0.64;66.56;100265.94;6067923;23;20173;-78
2022/10/25 03:49:46;;;;;;;17.48;7.15;;;;;;;-0.64;66.89;100268.50;6043488;23;20019;-78
2022/10/25 03:52:12;;;;;;;19.08;8.15;;;;;;;-0.63;66.64;100281.38;6043287;23;20026;-81
2022/10/25 03:54:38;;;;;;;20.90;8.88;;;;;;;-0.54;66.31;100286.00;6043948;23;20403;-81
2022/10/25 03:57:04;;;;;;;25.75;8.10;;;;;;;-0.77;66.44;100256.84;6043428;23;20065;-80
2022/10/25 03:59:30;;;;;;;23.67;8.60;;;;;;;-0.53;66.38;100292.88;6044167;23;20457;-79
2022/10/25 04:01:56;;;;;;;20.35;8.00;;;;;;;-0.61;66.14;100282.31;6043033;23;20026;-79
2022/10/25 04:04:22;;;;;;;30.63;9.25;;;;;;;-0.53;66.95;100295.41;6043341;23;20081;-79
2022/10/25 04:06:48;;;;;;;23.80;8.45;;;;;;;-0.57;66.62;100293.53;6066601;23;20019;-82
2022/10/25 04:09:14;;;;;;;21.35;8.75;;;;;;;-0.71;65.96;100271.59;6021037;23;20026;-80
2022/10/25 04:11:40;;;;;;;26.73;7.95;;;;;;;-0.57;66.35;100305.47;6036332;23;20405;-80
2022/10/25 04:14:07;;;;;;;18.92;8.70;;;;;;;-0.57;66.10;100300.34;6095426;23;20333;-80
2022/10/25 04:16:33;;;;;;;25.40;8.77;;;;;;;-0.63;66.88;100299.25;6023734;23;20022;-80
2022/10/25 04:18:59;;;;;;;20.00;7.78;;;;;;;-0.67;66.41;100293.94;6047469;23;20049;-77
2022/10/25 04:21:24;;;;;;;23.60;8.60;;;;;;;-0.64;66.21;100305.19;6049113;23;20042;-80
2022/10/25 04:23:51;;;;;;;21.17;8.60;;;;;;;-0.66;66.68;100301.66;6094632;23;20014;-81
2022/10/25 04:26:18;;;;;;;21.75;7.72;;;;;;;-0.73;66.64;100284.31;6096809;23;20025;-79
2022/10/25 04:28:56;;;;;;;25.33;8.35;;;;;;;-0.59;66.38;100289.16;6072067;23;20468;-80
2022/10/25 04:31:23;;;;;;;20.35;8.25;;;;;;;-0.20;66.44;100292.56;6071268;23;20528;-80
2022/10/25 04:33:53;;;;;;;21.88;7.65;;;;;;;-0.03;66.01;100297.53;6098466;23;20097;-79
2022/10/25 04:36:19;;;;;;;18.50;7.18;;;;;;;-0.02;66.52;100296.72;6096877;23;20022;-79
2022/10/25 04:38:47;;;;;;;15.30;7.55;;;;;;;0.05;65.92;100302.97;6096214;23;20023;-80
2022/10/25 04:41:13;;;;;;;15.60;7.63;;;;;;;0.34;66.17;100300.72;6071825;23;20022;-83
2022/10/25 04:43:40;;;;;;;18.27;7.82;;;;;;;0.84;65.57;100285.63;6095249;23;20030;-81
2022/10/25 04:46:06;;;;;;;24.27;7.78;;;;;;;1.57;65.37;100290.84;6072151;23;20057;-83
2022/10/25 04:48:31;;;;;;;19.42;8.60;;;;;;;2.37;65.11;100280.69;6099906;23;20022;-80
2022/10/25 04:50:59;;;;;;;13.85;7.18;;;;;;;3.30;64.74;100274.91;6071265;23;20080;-79
2022/10/25 04:53:25;;;;;;;15.88;6.80;;;;;;;4.37;64.24;100244.16;6046455;23;20015;-79
2022/10/25 04:55:55;;;;;;;17.75;7.88;;;;;;;5.73;63.58;100249.53;6095063;23;20025;-78
2022/10/25 04:58:22;;;;;;;18.25;6.70;;;;;;;7.00;61.85;100257.53;6097397;23;20063;-81
2022/10/25 05:00:48;;;;;;;17.80;7.03;;;;;;;7.94;60.91;100230.09;6078870;23;20025;-78
2022/10/25 05:03:14;;;;;;;18.20;6.57;;;;;;;9.09;59.34;100253.34;6054619;23;20356;-79
2022/10/25 05:05:40;;;;;;;15.38;7.32;;;;;;;10.00;57.78;100239.72;6101317;23;20879;-79
2022/10/25 05:08:05;;;;;;;17.33;7.80;;;;;;;11.02;55.66;100255.19;6102254;23;20010;-80
2022/10/25 05:10:31;;;;;;;20.30;8.05;;;;;;;11.66;53.67;100242.72;6100347;23;20417;-77
2022/10/25 05:12:57;;;;;;;15.43;7.40;;;;;;;12.03;51.29;100246.84;6071192;23;20023;-81
2022/10/25 05:15:23;;;;;;;16.20;7.78;;;;;;;12.58;50.79;100247.25;6095858;23;20029;-81
2022/10/25 05:17:49;;;;;;;14.30;7.53;;;;;;;12.71;47.30;100229.69;6071993;23;20018;-82
2022/10/25 05:20:15;;;;;;;14.68;7.85;;;;;;;12.88;47.61;100232.13;6072287;23;20018;-79
2022/10/25 05:22:41;;;;;;;43.53;20.17;;;;;;;13.20;46.81;100238.72;6071047;23;20049;-82
2022/10/25 05:25:08;;;;;;;34.95;19.50;;;;;;;13.44;45.72;100234.09;6047891;23;20022;-77
2022/10/25 05:27:38;;;;;;;24.83;13.75;;;;;;;13.60;44.64;100221.63;6095356;23;20014;-81
2022/10/25 05:30:05;;;;;;;26.75;10.35;;;;;;;14.24;43.79;100252.91;6073410;23;20014;-80
2022/10/25 05:32:31;;;;;;;26.95;9.63;;;;;;;14.93;43.02;100250.81;6050529;23;20073;-82
2022/10/25 05:34:56;;;;;;;28.73;8.82;;;;;;;15.79;42.02;100248.09;6101985;23;20018;-79
2022/10/25 05:37:23;;;;;;;23.17;10.57;;;;;;;16.47;40.67;100234.25;6081221;23;20049;-81
2022/10/25 05:39:49;;;;;;;26.33;9.20;;;;;;;16.95;38.67;100225.03;6082030;23;20018;-80
2022/10/25 05:42:15;;;;;;;26.02;8.55;;;;;;;17.57;37.55;100246.91;6100532;23;20014;-80
2022/10/25 05:44:40;;;;;;;32.45;9.73;;;;;;;18.18;36.72;100244.13;6072276;23;20022;-81
2022/10/25 05:47:07;;;;;;;23.58;8.30;;;;;;;18.92;35.42;100232.75;6071862;23;20419;-80
2022/10/25 05:49:38;;;;;;;25.23;8.75;;;;;;;19.68;34.09;100244.91;6048518;23;20022;-79
2022/10/25 05:52:10;;;;;;;17.83;7.40;;;;;;;20.51;32.88;100240.66;6071100;23;20423;-80
2022/10/25 05:54:36;;;;;;;21.30;7.78;;;;;;;21.31;31.89;100236.19;6070770;23;20365;-83
2022/10/25 05:57:02;;;;;;;20.08;7.97;;;;;;;22.21;30.76;100225.75;6070512;23;20419;-82
2022/10/25 05:59:28;;;;;;;22.65;8.73;;;;;;;22.84;29.26;100216.34;6095753;23;20018;-81
2022/10/25 06:01:54;;;;;;;18.35;9.18;;;;;;;23.33;28.18;100204.00;6096454;23;20483;-81
2022/10/25 06:04:20;;;;;;;21.15;8.50;;;;;;;24.00;27.81;100220.56;6071284;23;20018;-80
2022/10/25 06:06:46;;;;;;;17.45;8.23;;;;;;;24.72;26.65;100237.66;6071011;23;20464;-81
2022/10/25 06:09:13;;;;;;;25.02;9.13;;;;;;;25.39;26.13;100218.38;6097313;23;20046;-79
2022/10/25 06:11:40;;;;;;;19.10;8.63;;;;;;;26.05;25.16;100220.31;6071199;23;20038;-80
2022/10/25 06:14:08;;;;;;;21.35;9.00;;;;;;;26.84;24.25;100217.66;6071282;23;20025;-83
2022/10/25 06:16:36;;;;;;;18.65;8.43;;;;;;;27.59;23.39;100219.44;6096207;23;20018;-82
2022/10/25 06:19:02;;;;;;;22.10;8.48;;;;;;;28.18;22.39;100187.47;6070903;23;20487;-81
2022/10/25 06:21:29;;;;;;;16.70;8.70;;;;;;;28.80;22.17;100214.81;6097276;23;20487;-81
2022/10/25 06:23:57;;;;;;;19.75;8.75;;;;;;;29.19;21.74;100188.47;6074515;23;20134;-80
2022/10/25 06:26:27;;;;;;;22.02;8.65;;;;;;;29.84;20.77;100187.69;6098080;23;20018;-81
2022/10/25 06:28:56;;;;;;;20.50;8.90;;;;;;;30.30;20.40;100207.94;6054700;23;20066;-82
2022/10/25 06:31:23;;;;;;;15.32;8.23;;;;;;;30.59;20.05;100177.72;6093978;23;20015;-81
2022/10/25 06:33:49;;;;;;;19.58;8.45;;;;;;;31.42;19.65;100205.44;6116679;23;20026;-81
2022/10/25 06:36:21;;;;;;;16.73;8.75;;;;;;;31.22;18.89;100216.16;6084645;23;20018;-81
2022/10/25 06:38:49;;;;;;;19.15;8.88;;;;;;;31.14;19.00;100189.97;6077378;23;20022;-80
2022/10/25 06:41:21;;;;;;;16.52;8.27;;;;;;;31.80;18.38;100209.16;6107860;23;20022;-79
2022/10/25 06:43:48;;;;;;;19.60;8.40;;;;;;;32.30;17.72;100195.53;6080860;23;20021;-82
2022/10/25 06:46:23;;;;;;;12.52;7.32;;;;;;;33.03;17.06;100215.53;6100248;23;20018;-77
2022/10/25 06:48:50;;;;;;;17.33;6.80;;;;;;;33.19;17.06;100181.72;6097806;23;20073;-82
2022/10/25 06:51:16;;;;;;;10.10;6.10;;;;;;;33.70;16.46;100181.19;6071976;23;20053;-81
2022/10/25 06:53:42;;;;;;;8.50;5.20;;;;;;;34.43;15.96;100208.97;6070537;23;20101;-82
2022/10/25 06:56:10;;;;;;;9.05;5.28;;;;;;;34.73;15.32;100231.06;6070678;23;20018;-83
2022/10/25 06:58:37;;;;;;;10.15;4.65;;;;;;;34.67;15.45;100216.34;6095661;23;20126;-83
2022/10/25 07:01:11;;;;;;;6.07;4.50;;;;;;;35.20;14.57;100232.47;6095389;23;20021;-80
2022/10/25 07:03:42;;;;;;;6.72;4.85;;;;;;;35.65;14.17;100225.81;6071087;23;20089;-80
2022/10/25 07:06:12;;;;;;;12.20;5.60;;;;;;;35.58;13.85;100193.19;6101485;23;20042;-84
2022/10/25 07:08:51;;;;;;;8.88;5.57;;;;;;;36.02;13.92;100227.22;6051639;23;20022;-82
2022/10/25 07:11:18;;;;;;;14.32;5.35;;;;;;;36.13;13.61;100231.44;6101432;23;20054;-80
2022/10/25 07:13:45;;;;;;;11.82;5.43;;;;;;;36.15;12.96;100231.25;6072699;23;20046;-83
2022/10/25 07:16:15;;;;;;;9.02;5.28;;;;;;;36.22;13.33;100234.13;6097180;23;20018;-79
2022/10/25 07:18:41;;;;;;;8.65;5.07;;;;;;;36.63;13.29;100231.38;6098895;23;20014;-81
2022/10/25 07:21:12;;;;;;;11.43;5.80;;;;;;;37.12;12.70;100243.91;6099045;23;20053;-87
2022/10/25 07:23:42;;;;;;;11.90;5.80;;;;;;;37.28;12.25;100231.28;6072223;23;20021;-86
2022/10/25 07:26:17;;;;;;;8.73;6.03;;;;;;;36.87;12.52;100235.84;6073184;23;20018;-88
2022/10/25 07:28:46;;;;;;;10.70;7.00;;;;;;;37.03;12.40;100247.66;6095667;23;20383;-84
2022/10/25 07:31:14;;;;;;;9.95;5.43;;;;;;;37.25;12.41;100237.06;6072385;23;20022;-86
2022/10/25 07:33:40;;;;;;;9.00;5.70;;;;;;;37.26;11.58;100203.47;6047395;23;20176;-81
2022/10/25 07:36:07;;;;;;;29.52;20.75;;;;;;;37.52;11.68;100241.16;6050098;23;20014;-87
2022/10/25 07:38:33;;;;;;;11.32;8.07;;;;;;;37.49;10.96;100217.94;6101998;23;20022;-79
2022/10/25 07:41:00;;;;;;;8.82;5.25;;;;;;;37.71;10.91;100236.28;6057821;23;20028;-81
2022/10/25 07:43:27;;;;;;;8.80;5.05;;;;;;;37.81;10.91;100228.72;6050190;23;20010;-83
2022/10/25 07:45:55;;;;;;;6.22;4.78;;;;;;;37.85;11.01;100229.22;6097620;23;20022;-83
2022/10/25 07:48:22;;;;;;;6.88;4.80;;;;;;;37.97;11.04;100225.06;6099178;23;20028;-80
2022/10/25 07:50:47;;;;;;;6.50;4.38;;;;;;;38.27;10.84;100217.81;6075474;23;20026;-84
2022/10/25 07:53:14;;;;;;;9.13;4.95;;;;;;;38.71;10.59;100237.06;6098052;23;20023;-85
2022/10/25 07:55:39;;;;;;;6.45;3.42;;;;;;;38.78;10.20;100213.53;6097257;23;20026;-83
2022/10/25 07:58:08;;;;;;;4.80;3.60;;;;;;;38.78;9.97;100207.25;6053825;23;20599;-82
2022/10/25 08:00:35;;;;;;;7.18;4.03;;;;;;;39.09;10.03;100217.06;6031662;23;20018;-80
2022/10/25 08:03:02;;;;;;;7.97;3.85;;;;;;;39.42;9.86;100235.66;6081136;23;20042;-80
2022/10/25 08:05:28;;;;;;;6.28;3.90;;;;;;;39.28;10.00;100221.06;6078268;23;20018;-85
2022/10/25 08:07:55;;;;;;;5.32;4.05;;;;;;;39.39;9.65;100236.06;6074433;23;20022;-80
2022/10/25 08:10:21;;;;;;;8.73;4.15;;;;;;;39.14;9.37;100187.44;6027325;23;20018;-81
2022/10/25 08:12:49;;;;;;;6.72;4.53;;;;;;;39.07;9.37;100183.78;6049689;23;20078;-80
2022/10/25 08:15:15;;;;;;;8.32;4.32;;;;;;;39.58;9.37;100227.25;6072314;23;20332;-87
2022/10/25 08:17:41;;;;;;;5.85;4.13;;;;;;;39.55;9.40;100235.81;6097956;23;20070;-81
2022/10/25 08:20:08;;;;;;;6.10;4.13;;;;;;;39.35;9.31;100224.72;6097538;23;20018;-83
2022/10/25 08:22:34;;;;;;;7.43;4.15;;;;;;;38.81;9.23;100231.34;6071301;23;20043;-80
2022/10/25 08:25:01;;;;;;;5.63;3.92;;;;;;;38.45;9.44;100211.19;6071538;23;20029;-84
2022/10/25 08:27:27;;;;;;;8.98;5.13;;;;;;;38.89;9.33;100235.84;6098525;23;20026;-83
2022/10/25 08:29:53;;;;;;;5.38;2.85;;;;;;;38.96;9.09;100229.47;6048113;23;20018;-84
2022/10/25 08:32:19;;;;;;;7.85;3.20;;;;;;;39.39;8.94;100222.47;6072935;23;20491;-80
2022/10/25 08:34:45;;;;;;;7.40;3.30;;;;;;;39.55;8.85;100233.09;6074342;23;20018;-81
2022/10/25 08:37:12;;;;;;;5.20;3.20;;;;;;;39.62;8.73;100198.59;6096913;23;20022;-82
2022/10/25 08:39:38;;;;;;;6.13;3.80;;;;;;;39.80;8.53;100235.44;6025792;23;20056;-79
2022/10/25 08:42:05;;;;;;;12.55;4.15;;;;;;;39.39;8.76;100200.69;6024022;23;20014;-77
2022/10/25 08:44:55;;;;;;;8.85;3.97;;;;;;;39.57;8.51;100231.03;6071384;23;20021;-82
2022/10/25 08:47:32;;;;;;;17.93;3.80;;;;;;;39.62;8.44;100238.59;6072220;23;20022;-83
2022/10/25 08:50:02;;;;;;;8.48;3.63;;;;;;;39.71;8.20;100234.72;6047448;23;20265;-83
2022/10/25 08:52:39;;;;;;;10.90;4.03;;;;;;;39.71;8.57;100234.72;6047053;23;20041;-81
2022/10/25 08:55:30;;;;;;;8.32;3.55;;;;;;;39.76;8.43;100239.59;6048496;23;20023;-83
2022/10/25 08:57:58;;;;;;;9.80;4.10;;;;;;;39.88;8.48;100213.50;6104371;23;20042;-82
2022/10/25 09:00:28;;;;;;;6.40;3.65;;;;;;;39.99;8.01;100222.19;6104782;23;20018;-80
2022/10/25 09:03:00;;;;;;;9.05;4.07;;;;;;;39.86;8.38;100236.53;6072942;23;20408;-83
2022/10/25 09:05:51;;;;;;;6.80;3.85;;;;;;;39.47;8.22;100235.94;6046450;23;20132;-81
2022/10/25 09:08:36;;;;;;;7.75;3.85;;;;;;;39.56;8.47;100240.22;6070717;23;20040;-85
2022/10/25 09:11:16;;;;;;;4.38;3.58;;;;;;;39.16;8.34;100223.44;6046323;23;20054;-83
2022/10/25 09:13:58;;;;;;;6.70;3.55;;;;;;;38.94;8.55;100242.44;6109211;23;20034;-81
2022/10/25 09:16:50;;;;;;;5.78;3.70;;;;;;;38.90;8.42;100234.81;6026941;23;20049;-82
2022/10/25 09:19:41;;;;;;;8.93;3.97;;;;;;;38.80;8.43;100210.63;6050977;23;20025;-80
2022/10/25 09:22:25;;;;;;;7.60;3.80;;;;;;;38.96;8.38;100223.19;6073497;23;20014;-83
2022/10/25 09:24:58;;;;;;;8.60;4.10;;;;;;;38.90;8.52;100224.81;6097715;23;20014;-81
2022/10/25 09:27:57;;;;;;;6.75;4.10;;;;;;;38.91;8.35;100220.19;6071190;23;20021;-79
2022/10/25 09:30:23;;;;;;;7.45;3.90;;;;;;;38.47;8.62;100216.47;6097814;23;20018;-78
2022/10/25 09:33:07;;;;;;;8.75;4.13;;;;;;;37.91;8.18;100191.34;6073677;23;20074;-81
2022/10/25 09:40:10;;;;;;;;;;;;;;;;;;;;;
2022/10/25 09:42:55;;;;;;;7.85;4.00;;;;;;;34.05;9.89;100233.47;6082309;23;20397;-81
2022/10/25 09:45:27;;;;;;;8.50;4.05;;;;;;;33.49;10.39;100206.63;6104192;23;20045;-80
2022/10/25 09:48:32;;;;;;;7.25;4.15;;;;;;;33.69;10.30;100223.53;6052341;23;20456;-85
2022/10/25 09:51:12;;;;;;;7.82;4.03;;;;;;;33.79;10.23;100224.28;6046592;23;20019;-81
2022/10/25 09:53:43;;;;;;;8.65;3.85;;;;;;;33.52;10.50;100203.63;6095811;23;20025;-82
2022/10/25 09:56:09;;;;;;;11.93;3.90;;;;;;;32.36;10.98;100223.72;6046448;23;20468;-81
2022/10/25 09:58:41;;;;;;;16.10;4.00;;;;;;;29.87;11.42;100225.81;6069765;23;20393;-85
2022/10/25 10:01:25;;;;;;;10.02;3.72;;;;;;;27.08;13.29;100219.53;6022496;23;20018;-83
2022/10/25 10:03:55;;;;;;;6.15;3.58;;;;;;;25.06;14.41;100207.13;6024557;23;20017;-82
2022/10/25 10:06:33;;;;;;;8.48;3.67;;;;;;;23.57;15.42;100246.91;6073679;23;20500;-82
2022/10/25 10:09:04;;;;;;;9.30;3.50;;;;;;;21.93;16.30;100254.50;6075623;23;20022;-81
2022/10/25 10:11:31;;;;;;;5.35;3.20;;;;;;;20.57;16.90;100258.03;6096908;23;20026;-82
2022/10/25 10:14:30;;;;;;;9.90;3.95;;;;;;;19.29;18.30;100240.28;6081044;23;20025;-81
2022/10/25 10:17:02;;;;;;;10.50;4.63;;;;;;;18.39;19.17;100259.25;6049174;23;20105;-80
2022/10/25 10:19:34;;;;;;;12.00;5.05;;;;;;;17.63;20.19;100262.53;6050549;23;20022;-80
2022/10/25 10:22:20;;;;;;;14.25;4.90;;;;;;;16.98;20.69;100280.19;6050878;23;20045;-79
2022/10/25 10:24:57;;;;;;;7.95;3.70;;;;;;;16.42;21.48;100284.28;6070849;23;20053;-83
2022/10/25 10:27:26;;;;;;;7.88;3.97;;;;;;;15.89;22.27;100279.44;6097112;23;20022;-80
2022/10/25 10:30:01;;;;;;;5.15;3.33;;;;;;;15.52;22.59;100274.06;6074045;23;20030;-80
2022/10/25 10:32:35;;;;;;;8.75;3.80;;;;;;;15.00;23.22;100283.88;6097577;23;20045;-80
2022/10/25 10:35:07;;;;;;;7.47;3.17;;;;;;;14.61;23.87;100281.94;6071866;23;20022;-78
2022/10/25 10:37:33;;;;;;;10.30;3.90;;;;;;;13.86;24.44;100227.34;6072045;23;20049;-81
2022/10/25 10:40:22;;;;;;;10.43;4.13;;;;;;;13.61;24.90;100262.59;6070525;23;20022;-80
2022/10/25 10:42:49;;;;;;;7.75;4.00;;;;;;;13.36;25.24;100296.84;6070280;23;20017;-82
2022/10/25 10:45:18;;;;;;;9.32;4.38;;;;;;;13.01;26.05;100282.47;6096403;23;20025;-84
2022/10/25 10:47:50;;;;;;;10.60;4.70;;;;;;;12.75;26.34;100299.28;6095915;23;20046;-80
2022/10/25 10:50:19;;;;;;;;;;;;;;;12.49;26.64;100300.38;6047457;23;20022;-82
2022/10/25 10:52:50;;;;;;;10.65;5.20;;;;;;;12.13;27.09;100295.47;6071685;23;20265;-79
2022/10/25 10:55:26;;;;;;;11.38;5.53;;;;;;;11.96;27.49;100303.38;6096792;23;20026;-83
2022/10/25 10:57:54;;;;;;;13.65;5.90;;;;;;;11.47;28.34;100270.66;6094408;23;20018;-81
2022/10/25 11:00:29;;;;;;;11.70;5.88;;;;;;;11.47;29.06;100312.34;6097085;23;20014;-81
2022/10/25 11:02:58;;;;;;;20.50;5.85;;;;;;;11.22;29.21;100301.13;6073193;23;20109;-81
2022/10/25 11:05:32;;;;;;;10.43;6.53;;;;;;;10.95;29.66;100290.81;6097142;23;20025;-78
2022/10/25 11:08:21;;;;;;;9.55;6.15;;;;;;;10.71;29.78;100309.94;6097246;23;20014;-83
2022/10/25 11:10:47;;;;;;;10.88;6.47;;;;;;;10.58;30.62;100306.50;6072093;23;20085;-79
2022/10/25 11:13:16;;;;;;;11.32;5.50;;;;;;;10.32;30.71;100319.47;6099008;23;20393;-78
2022/10/25 11:16:01;;;;;;;16.27;6.25;;;;;;;9.83;32.05;100310.72;6098366;23;20025;-78
2022/10/25 11:18:45;;;;;;;17.92;7.30;;;;;;;9.70;32.45;100307.25;6074538;23;20041;-79
2022/10/25 11:21:29;;;;;;;13.52;6.13;;;;;;;9.45;32.55;100270.78;6050524;23;20445;-83
2022/10/25 11:24:22;;;;;;;13.80;7.25;;;;;;;9.38;33.11;100307.13;6071482;23;20014;-82
2022/10/25 11:27:20;;;;;;;11.00;6.20;;;;;;;9.33;33.25;100318.38;6049521;23;20025;-80
2022/10/25 11:30:09;;;;;;;13.82;5.95;;;;;;;9.22;33.89;100304.44;6044264;23;20018;-83
2022/10/25 11:32:44;;;;;;;16.52;6.25;;;;;;;9.08;34.11;100293.13;6053306;23;20460;-84
2022/10/25 11:35:26;;;;;;;12.15;5.57;;;;;;;9.19;33.35;100314.81;6054338;23;20073;-81
2022/10/25 11:38:01;;;;;;;17.38;6.68;;;;;;;9.08;34.45;100321.69;6076000;23;20018;-81
2022/10/25 11:40:40;;;;;;;16.17;8.07;;;;;;;8.76;34.15;100323.22;6074976;23;20029;-82
2022/10/25 11:43:34;;;;;;;15.30;7.43;;;;;;;8.66;34.77;100327.50;6048264;23;20014;-82
2022/10/25 11:46:47;;;;;;;18.67;7.00;;;;;;;8.54;34.58;100323.06;6097999;23;20018;-80
2022/10/25 11:49:20;;;;;;;13.18;6.35;;;;;;;8.29;35.31;100319.34;6040452;23;20026;-82